Time;durP1;ratioP1;P1;durP2;ratioP2;P2;SDS_P1;SDS_P2;PMS_P1;PMS_P2;Temp;Humidity;BMP_temperature;BMP_pressure;BME280_temperature;BME280_humidity;BME280_pressure;Samples;Min_cycle;Max_cycle;Signal;HPM_P1;HPM_P2
2021/10/05 00:00:24;;;;;;;;;2.20;0.20;;;;;13.41;74.49;99937.16;4621254;28;2728394;-85
2021/10/05 00:02:52;;;;;;;;;2.00;0.00;;;;;13.40;74.63;99945.28;4622500;28;2725290;-85
2021/10/05 00:05:19;;;;;;;;;1.00;1.00;;;;;13.40;74.40;99942.63;4622282;28;2737812;-85
2021/10/05 00:07:47;;;;;;;;;0.20;0.20;;;;;13.42;74.66;99943.34;4622240;28;2729448;-83
2021/10/05 00:10:14;;;;;;;;;2.00;0.40;;;;;13.23;75.04;99907.34;4621932;28;2729459;-83
2021/10/05 00:12:42;;;;;;;;;2.00;0.00;;;;;13.36;74.88;99939.31;4620133;28;2725302;-85
2021/10/05 00:15:11;;;;;;;;;1.00;1.00;;;;;13.32;74.91;99918.28;4622111;28;2737750;-85
2021/10/05 00:17:38;;;;;;;;;2.00;0.00;;;;;13.24;74.95;99911.72;4621767;28;2729859;-84
2021/10/05 00:20:08;;;;;;;;;1.40;0.60;;;;;13.40;75.01;99937.28;4622559;28;2725289;-84
2021/10/05 00:22:36;;;;;;;;;1.20;0.00;;;;;13.30;75.23;99921.91;4622421;28;2725274;-83
2021/10/05 00:25:04;;;;;;;;;3.00;1.00;;;;;13.32;75.24;99924.47;4622228;28;2733651;-84
2021/10/05 00:27:32;;;;;;;;;0.00;0.00;;;;;13.32;75.01;99920.97;4620813;28;2726419;-84
2021/10/05 00:30:00;;;;;;;;;0.60;0.60;;;;;13.35;74.86;99932.28;4622320;28;2726323;-84
2021/10/05 00:32:27;;;;;;;;;0.00;0.00;;;;;13.27;75.40;99927.50;4620481;28;2722165;-86
2021/10/05 00:34:55;;;;;;;;;1.60;0.80;;;;;13.13;75.36;99895.69;4622370;28;2731900;-85
2021/10/05 00:37:23;;;;;;;;;1.00;1.00;;;;;13.22;74.94;99904.78;4621416;28;2737836;-84
2021/10/05 00:39:50;;;;;;;;;0.40;0.40;;;;;13.33;75.12;99920.84;4620085;28;2727349;-85
2021/10/05 00:42:18;;;;;;;;;1.00;0.00;;;;;13.00;74.93;99868.22;4602618;28;2724263;-83
2021/10/05 00:44:48;;;;;;;;;1.40;0.80;;;;;13.29;75.25;99916.69;4621914;28;2728387;-82
2021/10/05 00:47:17;;;;;;;;;3.20;1.00;;;;;13.21;75.20;99903.09;4621331;28;2729839;-83
2021/10/05 00:49:46;;;;;;;;;0.40;0.00;;;;;13.19;75.45;99895.19;4621577;28;2731520;-84
2021/10/05 00:52:16;;;;;;;;;0.20;0.20;;;;;13.19;75.83;99900.53;4603484;28;2729460;-84
2021/10/05 00:54:44;;;;;;;;;2.80;1.00;;;;;13.19;75.56;99889.84;4621770;28;2729476;-83
2021/10/05 00:57:13;;;;;;;;;0.80;0.40;;;;;13.17;75.84;99904.28;4621255;28;2727365;-83
2021/10/05 00:59:41;;;;;;;;;0.20;0.20;;;;;13.16;75.92;99891.94;4603221;28;2725257;-84
2021/10/05 01:02:11;;;;;;;;;2.00;0.00;;;;;13.14;75.89;99886.72;4620938;28;2727409;-84
2021/10/05 01:04:42;;;;;;;;;0.60;0.60;;;;;13.14;75.74;99889.38;4603145;28;2738126;-84
2021/10/05 01:07:14;;;;;;;;;1.00;1.00;;;;;13.09;76.18;99875.53;4619725;28;2726347;-84
2021/10/05 01:09:43;;;;;;;;;1.00;0.00;;;;;13.03;76.46;99876.00;4602467;28;2735730;-84
2021/10/05 01:12:12;;;;;;;;;1.00;1.00;;;;;13.06;76.17;99871.28;4619548;28;2728399;-84
2021/10/05 01:14:41;;;;;;;;;1.20;0.00;;;;;13.06;76.05;99867.75;4602939;28;2728450;-84
2021/10/05 01:17:10;;;;;;;;;2.60;1.00;;;;;13.04;76.35;99851.88;4621972;28;2722161;-84
2021/10/05 01:19:38;;;;;;;;;0.20;0.20;;;;;13.05;76.16;99848.22;4602095;28;2731866;-84
2021/10/05 01:22:06;;;;;;;;;2.00;0.00;;;;;12.94;76.46;99838.38;4603033;28;2725608;-85
2021/10/05 01:24:34;;;;;;;;;3.20;1.00;;;;;13.02;76.85;99843.13;4619867;28;2733638;-85
2021/10/05 01:27:02;;;;;;;;;2.40;0.80;;;;;12.99;76.45;99839.84;4620581;28;2737781;-85
2021/10/05 01:29:32;;;;;;;;;0.80;0.00;;;;;12.91;76.30;99827.94;4621680;28;2725263;-84
2021/10/05 01:32:03;;;;;;;;;3.40;1.00;;;;;12.95;76.66;99832.09;4621182;28;2733591;-84
2021/10/05 01:34:32;;;;;;;;;1.00;1.00;;;;;12.98;76.67;99835.47;4602940;28;2731531;-84
2021/10/05 01:37:00;;;;;;;;;1.00;1.00;;;;;12.84;76.57;99801.84;4620833;28;2737773;-84
2021/10/05 01:39:38;;;;;;;;;2.80;1.00;;;;;12.88;77.05;99793.50;4621404;28;2722165;-84
2021/10/05 01:42:08;;;;;;;;;1.40;1.00;;;;;12.97;77.21;99810.63;4621331;28;2727344;-84
2021/10/05 01:44:37;;;;;;;;;2.00;0.60;;;;;12.87;77.13;99796.25;4621012;28;2736067;-84
2021/10/05 01:47:07;;;;;;;;;0.60;0.60;;;;;12.89;77.02;99795.19;4620906;28;2730528;-85
2021/10/05 01:49:35;;;;;;;;;3.20;1.00;;;;;12.88;77.20;99793.50;4603266;28;2724273;-84
2021/10/05 01:52:04;;;;;;;;;5.00;2.00;;;;;12.96;77.47;99795.56;4618902;28;2754467;-85
2021/10/05 01:54:32;;;;;;;;;4.00;2.00;;;;;12.94;77.46;99781.50;4620771;28;2737782;-84
2021/10/05 01:57:00;;;;;;;;;1.60;1.00;;;;;12.94;77.38;99782.34;4619754;28;2731562;-85
2021/10/05 01:59:27;;;;;;;;;3.00;2.00;;;;;12.91;77.52;99774.59;4620274;28;2751322;-84
2021/10/05 02:01:55;;;;;;;;;1.60;1.60;;;;;12.90;77.62;99764.03;4620353;28;2727366;-85
2021/10/05 02:04:24;;;;;;;;;5.67;1.83;;;;;12.93;77.11;99764.63;4620302;28;2750305;-84
2021/10/05 02:06:51;;;;;;;;;2.00;2.00;;;;;12.95;77.54;99761.84;4641589;28;2749264;-84
2021/10/05 02:09:19;;;;;;;;;1.60;1.00;;;;;12.90;77.30;99745.34;4618780;28;2730840;-85
2021/10/05 02:11:47;;;;;;;;;1.60;1.60;;;;;12.92;77.68;99746.91;4619352;28;2726311;-84
2021/10/05 02:14:14;;;;;;;;;2.60;1.00;;;;;12.86;77.39;99734.06;4621066;28;2731532;-84
2021/10/05 02:16:41;;;;;;;;;1.00;1.00;;;;;12.87;77.60;99733.09;4620096;28;2733674;-84
2021/10/05 02:19:09;;;;;;;;;2.00;1.00;;;;;12.75;77.49;99726.91;4618948;28;2720058;-84
2021/10/05 02:21:37;;;;;;;;;1.60;1.20;;;;;12.65;77.51;99709.91;4620393;28;2733607;-84
2021/10/05 02:26:51;;;;;;;;;1.00;1.00;;;;;12.78;77.63;99725.81;4620861;28;2725286;-85
2021/10/05 02:29:20;;;;;;;;;3.20;1.20;;;;;12.77;77.87;99724.97;4620492;28;2721503;-84
2021/10/05 02:31:48;;;;;;;;;1.60;1.00;;;;;12.75;77.68;99721.59;4619688;28;2745053;-84
2021/10/05 02:34:16;;;;;;;;;1.00;1.00;;;;;12.75;77.61;99710.91;4602262;28;2732939;-84
2021/10/05 02:36:44;;;;;;;;;2.40;1.00;;;;;12.73;78.56;99694.16;4620346;28;2731560;-85
2021/10/05 02:39:12;;;;;;;;;0.00;0.00;;;;;12.71;77.70;99685.44;4620424;28;2729460;-84
2021/10/05 02:41:39;;;;;;;;;1.60;1.60;;;;;12.76;77.76;99677.06;4602126;28;2727373;-85
2021/10/05 02:44:07;;;;;;;;;2.60;1.00;;;;;12.69;77.66;99660.69;4621735;28;2716917;-85
2021/10/05 02:46:35;;;;;;;;;3.40;1.60;;;;;12.69;77.63;99655.34;4620361;28;2730558;-85
2021/10/05 02:49:04;;;;;;;;;2.00;1.00;;;;;12.63;77.82;99634.53;4618679;28;2728418;-85
2021/10/05 02:51:32;;;;;;;;;0.20;0.20;;;;;12.82;78.07;99673.06;4620365;28;2729483;-84
2021/10/05 02:53:59;;;;;;;;;1.60;1.00;;;;;12.68;77.99;99642.16;4620510;28;2727361;-84
2021/10/05 02:56:27;;;;;;;;;4.60;1.00;;;;;12.63;78.10;99618.50;4618656;28;2730482;-84
2021/10/05 02:58:55;;;;;;;;;3.00;1.00;;;;;12.78;77.56;99649.31;4619652;28;2733992;-84
2021/10/05 03:01:22;;;;;;;;;4.20;1.60;;;;;12.72;77.94;99632.94;4620014;28;2727397;-84
2021/10/05 03:03:50;;;;;;;;;2.80;1.00;;;;;12.83;78.24;99638.28;4621156;28;2731504;-85
2021/10/05 03:06:17;;;;;;;;;3.40;1.00;;;;;12.82;77.90;99628.56;4623020;28;2735698;-84
2021/10/05 03:08:45;;;;;;;;;1.80;1.00;;;;;12.83;78.55;99624.09;4622946;28;2727378;-83
2021/10/05 03:11:12;;;;;;;;;1.20;0.60;;;;;12.78;78.22;99603.97;4622622;28;2738826;-84
2021/10/05 03:13:40;;;;;;;;;4.00;1.00;;;;;12.91;77.96;99624.31;4621656;28;2733590;-83
2021/10/05 03:16:08;;;;;;;;;1.00;1.00;;;;;12.74;78.12;99570.50;4622191;28;2725286;-84
2021/10/05 03:18:41;;;;;;;;;1.40;0.60;;;;;12.87;78.21;99594.38;4622934;28;2727386;-86
2021/10/05 03:21:09;;;;;;;;;2.80;1.00;;;;;12.87;78.44;99596.19;4622479;28;2732564;-84
2021/10/05 03:23:37;;;;;;;;;2.00;1.00;;;;;12.93;77.99;99601.88;4622153;28;2725290;-84
2021/10/05 03:26:05;;;;;;;;;2.80;0.40;;;;;12.88;78.26;99588.06;4622945;28;2735678;-85
2021/10/05 03:28:32;;;;;;;;;1.80;1.00;;;;;12.90;78.33;99580.78;4623179;28;2728439;-84
2021/10/05 03:31:00;;;;;;;;;4.00;1.20;;;;;12.94;77.94;99576.06;4621370;28;2728384;-84
2021/10/05 03:33:28;;;;;;;;;2.60;1.00;;;;;12.86;78.14;99574.00;4605848;28;2721131;-83
2021/10/05 03:35:55;;;;;;;;;1.20;1.00;;;;;12.77;77.90;99548.09;4622857;28;2733707;-84
2021/10/05 03:38:23;;;;;;;;;0.40;0.00;;;;;12.93;78.28;99587.69;4621310;28;2725671;-85
2021/10/05 03:40:51;;;;;;;;;1.00;0.00;;;;;12.89;77.66;99563.06;4622809;28;2729428;-84
2021/10/05 03:43:18;;;;;;;;;0.00;0.00;;;;;12.73;78.09;99536.78;4622978;28;2727372;-85
2021/10/05 03:45:46;;;;;;;;;4.60;1.40;;;;;12.66;78.33;99516.09;4621714;28;2752349;-84
2021/10/05 03:48:14;;;;;;;;;3.40;1.00;;;;;12.85;78.06;99558.13;4621096;28;2724260;-85
2021/10/05 03:50:41;;;;;;;;;1.00;1.00;;;;;12.69;77.77;99537.19;4622811;28;2729441;-84
2021/10/05 03:53:09;;;;;;;;;2.00;1.00;;;;;12.81;78.22;99544.16;4620875;28;2737762;-85
2021/10/05 03:55:36;;;;;;;;;2.60;0.80;;;;;12.88;78.06;99550.72;4622851;28;2726308;-85
2021/10/05 03:58:04;;;;;;;;;3.20;1.60;;;;;12.77;78.34;99543.59;4621565;28;2729447;-85
2021/10/05 04:00:31;;;;;;;;;0.80;0.80;;;;;12.87;78.46;99543.69;4622459;28;2725278;-85
2021/10/05 04:02:59;;;;;;;;;1.20;1.00;;;;;12.81;78.35;99514.00;4622683;28;2724213;-85
2021/10/05 04:05:26;;;;;;;;;1.00;1.00;;;;;12.83;78.54;99517.41;4623265;28;2725301;-84
2021/10/05 04:07:54;;;;;;;;;0.20;0.20;;;;;12.77;78.25;99497.41;4620666;28;2725282;-85
2021/10/05 04:10:21;;;;;;;;;2.60;0.60;;;;;12.87;77.88;99517.00;4619864;28;2728415;-84
2021/10/05 04:12:49;;;;;;;;;2.20;1.00;;;;;12.78;78.21;99501.75;4620371;28;2725277;-85
2021/10/05 04:15:16;;;;;;;;;1.40;1.00;;;;;12.85;78.20;99504.75;4621922;28;2725285;-85
2021/10/05 04:17:44;;;;;;;;;1.00;1.00;;;;;12.98;78.18;99520.63;4621237;28;2724272;-85
2021/10/05 04:20:12;;;;;;;;;5.00;2.00;;;;;12.99;78.42;99511.66;4621133;28;2754467;-86
2021/10/05 04:22:39;;;;;;;;;1.40;1.00;;;;;12.93;78.18;99497.00;4622830;28;2715884;-84
2021/10/05 04:25:08;;;;;;;;;0.80;0.00;;;;;12.97;78.33;99486.91;4623057;28;2722168;-85
2021/10/05 04:27:37;;;;;;;;;1.20;1.20;;;;;13.01;78.27;99483.00;4621887;28;2726351;-85
2021/10/05 04:30:06;;;;;;;;;1.80;1.20;;;;;13.02;78.63;99492.72;4621563;28;2727376;-86
2021/10/05 04:32:34;;;;;;;;;2.00;1.00;;;;;13.03;78.53;99492.59;4603899;28;2734677;-85
2021/10/05 04:35:02;;;;;;;;;1.00;1.00;;;;;12.93;78.31;99465.81;4622930;28;2723191;-85
2021/10/05 04:37:29;;;;;;;;;5.00;0.60;;;;;13.02;78.14;99469.53;4603363;28;2732931;-85
2021/10/05 04:39:57;;;;;;;;;1.40;1.00;;;;;12.97;78.69;99449.53;4621587;28;2729801;-85
2021/10/05 04:42:24;;;;;;;;;2.00;2.00;;;;;13.09;78.24;99470.72;4621601;28;2738810;-85
2021/10/05 04:44:52;;;;;;;;;1.60;1.00;;;;;13.04;78.58;99448.91;4622111;28;2737785;-84
2021/10/05 04:47:19;;;;;;;;;2.80;1.80;;;;;13.08;78.13;99445.03;4619551;28;2729449;-86
2021/10/05 04:49:47;;;;;;;;;3.80;0.80;;;;;13.07;78.33;99435.31;4621689;28;2734635;-86
2021/10/05 04:52:14;;;;;;;;;1.00;1.00;;;;;13.02;78.49;99407.31;4620083;28;2724573;-85
2021/10/05 04:54:42;;;;;;;;;1.00;1.00;;;;;13.10;78.18;99431.56;4622320;28;2725297;-86
2021/10/05 04:57:10;;;;;;;;;2.20;1.00;;;;;13.01;77.95;99416.28;4622206;28;2722192;-86
2021/10/05 04:59:37;;;;;;;;;2.00;1.00;;;;;13.17;78.02;99439.88;4621883;28;2726367;-85
2021/10/05 05:02:04;;;;;;;;;0.80;0.80;;;;;13.02;78.08;99418.84;4622124;28;2729459;-85
2021/10/05 05:04:32;;;;;;;;;3.00;1.80;;;;;13.08;78.17;99418.34;4620926;28;2744039;-91
2021/10/05 05:07:00;;;;;;;;;1.00;1.00;;;;;13.16;78.33;99417.69;4622717;28;2724247;-91
2021/10/05 05:09:27;;;;;;;;;1.40;1.00;;;;;13.16;78.43;99419.50;4623132;28;2733618;-91
2021/10/05 05:11:55;;;;;;;;;5.00;1.00;;;;;13.20;78.43;99423.63;4622702;28;2739889;-91
2021/10/05 05:14:22;;;;;;;;;3.60;2.00;;;;;13.17;78.06;99403.38;4621785;28;2741913;-93
2021/10/05 05:16:50;;;;;;;;;1.80;1.00;;;;;13.08;77.91;99382.78;4605651;28;2719009;-90
2021/10/05 05:19:17;;;;;;;;;1.00;1.00;;;;;13.03;78.08;99369.00;4622491;28;2725309;-85
2021/10/05 05:21:45;;;;;;;;;2.60;0.20;;;;;13.09;77.81;99371.97;4621264;28;2728402;-87
2021/10/05 05:24:12;;;;;;;;;2.40;1.20;;;;;13.17;77.77;99378.47;4620402;28;2733615;-86
2021/10/05 05:26:40;;;;;;;;;2.00;1.00;;;;;13.21;77.96;99386.13;4621166;28;2726323;-86
2021/10/05 05:29:07;;;;;;;;;2.60;1.00;;;;;13.09;77.90;99371.97;4603121;28;2724220;-87
2021/10/05 05:31:35;;;;;;;;;1.20;1.00;;;;;13.21;78.23;99394.13;4621668;28;2730535;-86
2021/10/05 05:34:02;;;;;;;;;2.40;0.80;;;;;13.27;77.88;99392.75;4621480;28;2727334;-86
2021/10/05 05:36:30;;;;;;;;;1.00;0.40;;;;;13.11;77.91;99370.03;4620566;28;2738839;-85
2021/10/05 05:38:57;;;;;;;;;1.00;1.00;;;;;13.15;77.84;99381.28;4619895;28;2725317;-86
2021/10/05 05:41:25;;;;;;;;;4.60;1.00;;;;;13.17;77.76;99384.69;4620135;28;2732616;-86
2021/10/05 05:43:52;;;;;;;;;2.40;1.00;;;;;13.23;77.61;99369.97;4619501;28;2731499;-85
2021/10/05 05:46:20;;;;;;;;;2.80;1.00;;;;;13.16;77.64;99361.63;4621094;28;2726672;-85
2021/10/05 05:48:47;;;;;;;;;1.00;1.00;;;;;13.25;77.94;99378.69;4619708;28;2720054;-85
2021/10/05 05:51:15;;;;;;;;;3.80;1.00;;;;;13.30;77.31;99369.31;4619558;28;2731539;-85
2021/10/05 05:53:44;;;;;;;;;4.00;1.80;;;;;13.35;77.64;99378.78;4620334;28;2746464;-86
2021/10/05 05:56:12;;;;;;;;;1.00;1.00;;;;;13.39;77.47;99374.88;4620862;28;2725713;-86
2021/10/05 05:58:39;;;;;;;;;1.80;1.00;;;;;13.39;77.66;99337.50;4602710;28;2725266;-86
2021/10/05 06:01:07;;;;;;;;;3.00;1.80;;;;;13.21;77.89;99321.19;4620458;28;2732549;-85
2021/10/05 06:03:34;;;;;;;;;2.60;1.00;;;;;13.24;77.78;99327.13;4621180;28;2727393;-85
2021/10/05 06:06:02;;;;;;;;;3.00;1.40;;;;;13.15;77.94;99292.38;4619354;28;2744007;-84
2021/10/05 06:08:29;;;;;;;;;1.00;0.80;;;;;13.34;78.56;99347.69;4620762;28;2729437;-85
2021/10/05 06:10:57;;;;;;;;;1.60;1.60;;;;;13.32;78.19;99337.13;4619624;28;2737836;-86
2021/10/05 06:13:24;;;;;;;;;1.00;1.00;;;;;13.32;78.25;99318.44;4621163;28;2725285;-88
2021/10/05 06:15:52;;;;;;;;;1.00;1.00;;;;;13.35;78.68;99323.56;4619242;28;2727346;-85
2021/10/05 06:18:19;;;;;;;;;1.40;1.00;;;;;13.28;79.15;99322.38;4619168;28;2733634;-85
2021/10/05 06:20:47;;;;;;;;;4.80;2.60;;;;;13.21;78.88;99316.72;4617623;28;2754424;-85
2021/10/05 06:23:14;;;;;;;;;2.60;1.00;;;;;13.15;79.07;99329.75;4620388;28;2725309;-86
2021/10/05 06:25:42;;;;;;;;;4.00;2.60;;;;;13.04;78.95;99298.63;4619862;28;2750692;-85
2021/10/05 06:28:10;;;;;;;;;1.00;1.00;;;;;13.24;79.61;99327.13;4618566;28;2733639;-86
2021/10/05 06:30:37;;;;;;;;;2.20;1.40;;;;;13.22;80.06;99325.56;4620692;28;2723179;-86
2021/10/05 06:33:05;;;;;;;;;1.40;1.00;;;;;13.04;80.19;99304.84;4618170;28;2728422;-85
2021/10/05 06:35:32;;;;;;;;;1.80;0.40;;;;;12.94;80.40;99299.44;4621091;28;2724256;-86
2021/10/05 06:38:00;;;;;;;;;2.80;2.00;;;;;13.10;80.58;99314.13;4619396;28;2725298;-85
2021/10/05 06:40:30;;;;;;;;;1.80;1.80;;;;;12.92;80.68;99298.69;4619946;28;2739854;-86
2021/10/05 06:42:58;;;;;;;;;2.20;1.00;;;;;12.97;81.12;99305.47;4620948;28;2724271;-86
2021/10/05 06:45:26;;;;;;;;;1.00;1.00;;;;;12.92;81.68;99296.03;4620473;28;2728411;-86
2021/10/05 06:47:54;;;;;;;;;3.00;1.00;;;;;12.86;81.35;99277.06;4618202;28;2730763;-85
2021/10/05 06:50:23;;;;;;;;;1.40;1.00;;;;;12.94;81.74;99288.75;4620830;28;2719008;-85
2021/10/05 06:52:51;;;;;;;;;1.00;1.00;;;;;12.89;81.36;99272.28;4620464;28;2727400;-86
2021/10/05 06:55:19;;;;;;;;;2.20;1.00;;;;;13.07;81.53;99306.41;4618413;28;2733610;-85
2021/10/05 06:57:46;;;;;;;;;0.80;0.80;;;;;12.93;81.65;99254.22;4601769;28;2725301;-85
2021/10/05 07:00:17;;;;;;;;;2.80;0.80;;;;;13.08;81.68;99276.91;4617399;28;2735729;-85
2021/10/05 07:02:46;;;;;;;;;1.80;1.00;;;;;12.99;81.81;99261.69;4620178;28;2733996;-85
2021/10/05 07:05:16;;;;;;;;;0.00;0.00;;;;;13.03;82.50;99262.28;4620231;28;2725302;-86
2021/10/05 07:07:46;;;;;;;;;0.60;0.60;;;;;13.00;82.77;99262.50;4620046;28;2727413;-85
2021/10/05 07:10:16;;;;;;;;;1.60;0.80;;;;;13.01;82.92;99261.53;4620226;28;2726825;-86
2021/10/05 07:12:44;;;;;;;;;0.20;0.20;;;;;12.99;83.24;99272.34;4618685;28;2733623;-85
2021/10/05 07:15:13;;;;;;;;;2.00;0.80;;;;;12.91;83.25;99257.00;4619586;28;2726343;-86
2021/10/05 07:17:42;;;;;;;;;1.00;0.60;;;;;13.01;83.21;99265.06;4619646;28;2731538;-86
2021/10/05 07:20:10;;;;;;;;;0.00;0.00;;;;;13.01;83.95;99248.19;4602143;28;2724244;-86
2021/10/05 07:22:38;;;;;;;;;0.00;0.00;;;;;12.93;83.75;99222.19;4601793;28;2727361;-86
2021/10/05 07:25:06;;;;;;;;;0.00;0.00;;;;;12.87;83.46;99204.03;4619854;28;2728402;-86
2021/10/05 07:27:33;;;;;;;;;0.40;0.00;;;;;12.98;83.56;99217.28;4620012;28;2725289;-86
2021/10/05 07:30:03;;;;;;;;;2.00;1.00;;;;;13.01;83.46;99219.72;4601187;28;2730466;-86
2021/10/05 07:32:31;;;;;;;;;1.20;0.00;;;;;12.92;83.88;99208.00;4620030;28;2725294;-86
2021/10/05 07:34:59;;;;;;;;;0.80;0.00;;;;;13.05;84.41;99231.78;4601717;28;2722479;-86
2021/10/05 07:37:26;;;;;;;;;1.00;0.00;;;;;12.88;83.91;99190.59;4620091;28;2725290;-85
2021/10/05 07:39:54;;;;;;;;;1.00;0.00;;;;;12.84;84.13;99189.16;4618581;28;2722481;-86
2021/10/05 07:42:21;;;;;;;;;1.00;0.00;;;;;12.97;84.30;99188.94;4620122;28;2725675;-86
2021/10/05 07:44:49;;;;;;;;;0.60;0.60;;;;;13.01;84.03;99206.38;4620647;28;2715906;-86
2021/10/05 07:47:17;;;;;;;;;1.00;0.00;;;;;12.85;84.48;99182.84;4619916;28;2725294;-85
2021/10/05 07:49:44;;;;;;;;;0.00;0.00;;;;;12.74;84.68;99158.91;4621060;28;2727400;-86
2021/10/05 07:52:12;;;;;;;;;1.00;1.00;;;;;12.97;84.52;99204.94;4623373;28;2719054;-86
2021/10/05 07:54:39;;;;;;;;;2.00;0.00;;;;;13.01;84.35;99201.03;4621376;28;2728378;-86
2021/10/05 07:57:07;;;;;;;;;0.00;0.00;;;;;12.86;84.60;99187.19;4622149;28;2725326;-85
2021/10/05 07:59:34;;;;;;;;;0.80;0.00;;;;;12.85;84.90;99182.00;4622741;28;2725282;-85
2021/10/05 08:02:02;;;;;;;;;1.00;0.00;;;;;12.86;84.92;99186.38;4621004;28;2727738;-86
2021/10/05 08:04:30;;;;;;;;;2.00;0.00;;;;;12.98;85.00;99227.13;4622934;28;2725250;-88
2021/10/05 08:06:57;;;;;;;;;0.00;0.00;;;;;12.92;85.17;99196.50;4623238;28;2722184;-86
2021/10/05 08:09:25;;;;;;;;;0.20;0.20;;;;;12.82;85.39;99159.09;4622804;28;2726351;-86
2021/10/05 08:11:52;;;;;;;;;0.00;0.00;;;;;12.98;85.32;99173.78;4620934;28;2730487;-86
2021/10/05 08:14:20;;;;;;;;;2.20;0.60;;;;;13.03;85.34;99182.22;4622614;28;2727364;-87
2021/10/05 08:16:47;;;;;;;;;0.00;0.00;;;;;13.08;84.92;99196.84;4622258;28;2724276;-86
2021/10/05 08:19:16;;;;;;;;;1.60;0.80;;;;;13.06;85.14;99180.13;4622721;28;2728399;-85
2021/10/05 08:21:43;;;;;;;;;0.00;0.00;;;;;12.99;84.71;99162.13;4622626;28;2731535;-86
2021/10/05 08:24:11;;;;;;;;;2.00;0.80;;;;;13.11;84.76;99172.56;4622255;28;2725281;-86
2021/10/05 08:26:38;;;;;;;;;0.20;0.00;;;;;13.11;84.87;99174.38;4622544;28;2722129;-85
2021/10/05 08:29:06;;;;;;;;;0.00;0.00;;;;;13.12;85.05;99168.06;4622789;28;2723225;-86
2021/10/05 08:31:33;;;;;;;;;0.00;0.00;;;;;13.19;85.08;99173.72;4621913;28;2728395;-86
2021/10/05 08:34:01;;;;;;;;;1.00;0.00;;;;;13.10;84.90;99148.69;4622375;28;2725285;-86
2021/10/05 08:36:29;;;;;;;;;2.00;0.00;;;;;13.27;85.04;99171.22;4620623;28;2727381;-86
2021/10/05 08:38:56;;;;;;;;;4.20;1.00;;;;;13.30;85.21;99186.97;4620065;28;2736768;-85
2021/10/05 08:41:24;;;;;;;;;0.00;0.00;;;;;13.22;85.03;99184.94;4622089;28;2728391;-87
2021/10/05 08:43:51;;;;;;;;;0.00;0.00;;;;;13.12;85.14;99157.38;4622220;28;2729480;-86
2021/10/05 08:46:19;;;;;;;;;0.00;0.00;;;;;13.25;84.23;99207.84;4622409;28;2725298;-86
2021/10/05 08:48:47;;;;;;;;;0.40;0.00;;;;;13.15;84.35;99207.81;4622576;28;2725325;-86
2021/10/05 08:51:15;;;;;;;;;3.00;0.00;;;;;13.18;84.01;99247.59;4603784;28;2731560;-86
2021/10/05 08:53:42;;;;;;;;;2.20;0.00;;;;;13.14;84.09;99238.19;4620514;28;2730506;-87
2021/10/05 08:56:10;;;;;;;;;1.00;0.00;;;;;13.01;83.75;99240.19;4621690;28;2733940;-86
2021/10/05 08:58:40;;;;;;;;;0.40;0.00;;;;;13.03;84.18;99270.28;4622583;28;2721148;-86
2021/10/05 09:01:13;;;;;;;;;0.00;0.00;;;;;12.97;83.99;99276.13;4621100;28;2725289;-86
2021/10/05 09:03:48;;;;;;;;;0.00;0.00;;;;;12.91;83.98;99274.81;4622502;28;2721131;-87
2021/10/05 09:06:17;;;;;;;;;0.00;0.00;;;;;13.04;83.77;99290.63;4622224;28;2724577;-86
2021/10/05 09:08:46;;;;;;;;;0.00;0.00;;;;;13.01;84.29;99296.22;4603526;28;2733614;-86
2021/10/05 09:11:16;;;;;;;;;0.80;0.00;;;;;12.91;83.73;99305.03;4621895;28;2727376;-86
2021/10/05 09:13:51;;;;;;;;;0.00;0.00;;;;;12.90;83.93;99300.66;4621037;28;2712794;-86
2021/10/05 09:16:30;;;;;;;;;0.00;0.00;;;;;12.82;83.80;99294.28;4603708;28;2725306;-87
2021/10/05 09:19:07;;;;;;;;;0.00;0.00;;;;;12.92;83.75;99316.53;4622081;28;2729471;-87
2021/10/05 09:21:48;;;;;;;;;0.00;0.00;;;;;12.97;84.24;99324.16;4621964;28;2721147;-86
2021/10/05 09:24:27;;;;;;;;;0.00;0.00;;;;;12.99;84.13;99319.53;4603774;28;2728435;-87
2021/10/05 09:26:58;;;;;;;;;0.00;0.00;;;;;13.04;84.29;99327.97;4621741;28;2723234;-86
2021/10/05 09:29:34;;;;;;;;;0.00;0.00;;;;;13.07;84.23;99333.09;4622067;28;2731544;-86
2021/10/05 09:32:09;;;;;;;;;0.00;0.00;;;;;13.04;84.36;99325.31;4621860;28;2725289;-86
2021/10/05 09:34:54;;;;;;;;;0.00;0.00;;;;;13.02;84.16;99314.78;4622203;28;2719021;-86
2021/10/05 09:37:23;;;;;;;;;0.00;0.00;;;;;13.10;84.25;99352.31;4620005;28;2725638;-85
2021/10/05 09:39:59;;;;;;;;;2.00;0.00;;;;;13.13;84.38;99357.41;4621608;28;2726318;-86
2021/10/05 09:42:29;;;;;;;;;0.40;0.00;;;;;13.23;84.29;99361.97;4622015;28;2714894;-86
2021/10/05 09:45:03;;;;;;;;;0.00;0.00;;;;;13.24;84.02;99369.84;4603385;28;2725271;-86
2021/10/05 09:47:42;;;;;;;;;1.00;0.00;;;;;13.26;84.39;99361.69;4621833;28;2723174;-86
2021/10/05 09:50:17;;;;;;;;;0.20;0.00;;;;;13.33;84.04;99356.69;4621678;28;2725290;-87
2021/10/05 09:52:51;;;;;;;;;0.00;0.00;;;;;13.43;84.54;99366.47;4621451;28;2725289;-87
2021/10/05 09:55:21;;;;;;;;;0.00;0.00;;;;;13.52;84.53;99363.97;4621689;28;2719447;-87
2021/10/05 09:57:51;;;;;;;;;0.60;0.00;;;;;13.60;84.43;99365.00;4603248;28;2725263;-87
2021/10/05 10:00:21;;;;;;;;;1.00;0.00;;;;;13.56;84.60;99347.53;4603386;28;2725325;-86
2021/10/05 10:02:49;;;;;;;;;0.00;0.00;;;;;13.69;83.78;99363.34;4621298;28;2725290;-87
2021/10/05 10:05:23;;;;;;;;;0.00;0.00;;;;;13.73;83.17;99375.47;4621159;28;2725309;-86
2021/10/05 10:07:54;;;;;;;;;1.20;0.00;;;;;13.78;82.80;99394.63;4619737;28;2725254;-87
2021/10/05 10:10:26;;;;;;;;;0.00;0.00;;;;;13.80;83.38;99387.28;4621602;28;2725297;-86
2021/10/05 10:12:56;;;;;;;;;0.00;0.00;;;;;13.71;83.18;99368.56;4620566;28;2724225;-87
2021/10/05 10:15:43;;;;;;;;;0.00;0.00;;;;;13.98;83.32;99389.34;4619498;28;2725270;-87
2021/10/05 10:18:16;;;;;;;;;0.00;0.00;;;;;14.14;82.83;99404.88;4619343;28;2724231;-87
2021/10/05 10:21:00;;;;;;;;;4.60;0.00;;;;;14.25;82.65;99402.09;4620979;28;2730486;-86
2021/10/05 10:23:29;;;;;;;;;0.00;0.00;;;;;14.37;82.04;99407.31;4621269;28;2725679;-87
2021/10/05 10:26:28;;;;;;;;;0.00;0.00;;;;;14.50;82.21;99410.56;4620829;28;2725325;-87
2021/10/05 10:28:58;;;;;;;;;0.20;0.00;;;;;14.67;82.20;99411.75;4599624;28;2733638;-88
2021/10/05 10:31:38;;;;;;;;;3.80;0.20;;;;;14.90;81.97;99414.16;4620755;28;2723202;-87
2021/10/05 10:34:18;;;;;;;;;0.00;0.00;;;;;15.12;82.06;99421.91;4620603;28;2733686;-87
2021/10/05 10:36:45;;;;;;;;;0.00;0.00;;;;;15.42;81.89;99441.47;4602193;28;2719012;-87
2021/10/05 10:39:17;;;;;;;;;2.00;0.00;;;;;15.65;81.04;99444.66;4620806;28;2724244;-87
2021/10/05 10:41:59;;;;;;;;;1.60;0.00;;;;;15.85;79.66;99450.84;4619350;28;2727346;-87
2021/10/05 10:44:37;;;;;;;;;0.00;0.00;;;;;16.14;79.91;99455.25;4603195;28;2724251;-87
2021/10/05 10:47:16;;;;;;;;;0.00;0.00;;;;;16.36;76.49;99447.78;4621006;28;2725612;-87
2021/10/05 10:49:52;;;;;;;;;0.00;0.00;;;;;16.68;77.15;99457.22;4621074;28;2725282;-87
2021/10/05 10:52:32;;;;;;;;;2.20;0.00;;;;;16.82;76.40;99464.75;4618551;28;2733626;-86
2021/10/05 10:55:00;;;;;;;;;4.20;0.00;;;;;16.98;75.62;99461.41;4602460;28;2729441;-87
2021/10/05 10:57:34;;;;;;;;;0.00;0.00;;;;;17.15;74.83;99464.28;4618819;28;2727369;-87
2021/10/05 11:00:15;;;;;;;;;0.00;0.00;;;;;17.01;72.76;99438.78;4620789;28;2725254;-87
2021/10/05 11:02:45;;;;;;;;;2.20;0.00;;;;;17.07;72.51;99460.50;4620845;28;2725627;-88
2021/10/05 11:05:14;;;;;;;;;2.00;0.00;;;;;16.97;72.38;99475.84;4620453;28;2733972;-87
2021/10/05 11:07:42;;;;;;;;;0.80;0.20;;;;;16.86;73.24;99465.28;4619785;28;2735698;-87
2021/10/05 11:10:10;;;;;;;;;2.00;0.00;;;;;16.79;72.87;99461.53;4602525;28;2729420;-87
2021/10/05 11:12:51;;;;;;;;;1.00;0.00;;;;;16.81;72.36;99489.91;4620968;28;2725326;-87
2021/10/05 11:15:39;;;;;;;;;1.60;0.00;;;;;16.76;70.88;99488.66;4621059;28;2722233;-87
2021/10/05 11:18:11;;;;;;;;;0.00;0.00;;;;;16.84;72.15;99492.28;4602617;28;2710720;-88
2021/10/05 11:20:49;;;;;;;;;2.00;0.40;;;;;17.08;72.76;99464.03;4620346;28;2731547;-86
2021/10/05 11:23:19;;;;;;;;;2.20;0.00;;;;;17.71;70.59;99506.03;4602600;28;2725325;-86
2021/10/05 11:26:00;;;;;;;;;0.00;0.00;;;;;18.19;67.83;99495.78;4621573;28;2724268;-88
2021/10/05 11:28:31;;;;;;;;;0.00;0.00;;;;;18.49;66.50;99473.91;4623711;28;2733604;-87